Portada
METAR-TAF:

METAR-TAF

Aeropuertos :

Aeropuerto de Chitá-Kadala

Chitá, Rusia

latitud: 52-05N, longitud: 113-29E, altitud: 685 m

Observación

El informe se hizo hace 37 minutos, a las 17:30 UTC
Viento 2 kt del norte-noroeste
Temperatura -25°C
Humedad 76%
Presión 1022 hPa
Visibilidad 10 km o más

METAR: UIAA 211730Z AUTO 33001MPS 9999 NCD M25/M28 Q1022 RMK QFE707/0943

Hora: 03:07 (18:07 UTC)

Pronóstico

El informe se hizo hace 1 hora y 7 minutos, a las 17:00 UTC
Pronóstico válido del 21 a las 18 UTC al 22 a las 18 UTC
Viento 6 kt del este-noreste
Visibilidad: 3100 m
Nubes dispersas a una altura de 400 ft
neblina
Temporalmente
del 21 a las 18 UTC al 22 a las 02 UTC
Visibilidad: 0500 m
a una altura de 100 ft
niebla engelante

TAF: UIAA 211700Z 2118/2218 06003MPS 3100 BR SCT004 TEMPO 2118/2202 0500 FZFG VV001

Observaciones y pronósticos meteorológicos de más de 4000 aeropuertos (mensajes METAR y TAF).

Los puntos amarillos y rojos representan las estaciones disponibles.

Ponga el ratón en el punto deseado para ver el nombre de la estación.

Haga clic para ver las observaciones y los pronósticos meteorológicos.

Para cambiar el mapa : haga clic en los botones verdes con una cruz de color negro para hacer un zoom, en el botón verde con un guión para alejar o en las flechas verdes para mapas adyacentes.


METAR-TAF: